Terminal Aerodrome Forecast
Issued by NWS Cleveland, OH

Home | Current Version | Previous Version | Text Only | Print | Product List | Glossary Off
Versions: 1 2 3 4 5 6 7 8 9 10 11 12 13 14 15 16 17 18 19 20

000
FTUS41 KCLE 302350
TAFCAK
TAF
KCAK 302350Z 3100/3124 19009KT 6SM TSRA OVC035CB
      TEMPO 3100/3102 1SM +TSRA OVC015CB
     FM310200 20006KT 4SM -TSRA BR OVC035CB
     FM310800 03007KT 4SM -SHRA BR OVC025
     FM311100 07010KT 2SM -SHRA BR OVC007
     FM311800 32009KT 2SM -SHRA BR OVC015
     FM312300 03008KT 2SM -SHRA BR OVC003=

USA.gov is the U.S. government's official web portal to all federal, state and local government web resources and services.